createdAt,value
2022-10-28T00:04:24.381Z,16.06
2022-10-28T00:14:28.939Z,15.95
2022-10-28T00:24:32.124Z,15.17
2022-10-28T00:34:36.537Z,15.78
2022-10-28T00:44:49.385Z,15.94
2022-10-28T00:54:54.127Z,15.87
2022-10-28T01:04:57.411Z,15.95
2022-10-28T01:15:11.960Z,15.91
2022-10-28T01:25:52.880Z,15.78
2022-10-28T01:36:00.736Z,15.91
2022-10-28T01:46:06.659Z,15.93
2022-10-28T01:56:12.592Z,15.93
2022-10-28T02:06:19.651Z,15.94
2022-10-28T02:16:29.417Z,15.96
2022-10-28T02:26:37.042Z,15.92
2022-10-28T02:36:45.038Z,15.84
2022-10-28T02:46:50.258Z,15.89
2022-10-28T02:56:58.664Z,15.93
2022-10-28T03:07:01.808Z,15.80
2022-10-28T03:17:07.746Z,15.73
2022-10-28T03:27:10.862Z,15.80
2022-10-28T03:37:15.345Z,15.79
2022-10-28T03:47:18.430Z,15.85
2022-10-28T03:57:22.889Z,15.79
2022-10-28T04:07:26.063Z,15.03
2022-10-28T04:17:30.566Z,15.10
2022-10-28T04:27:33.756Z,15.14
2022-10-28T04:37:38.395Z,15.30
2022-10-28T04:47:41.553Z,14.83
2022-10-28T04:57:46.025Z,15.05
2022-10-28T05:07:49.113Z,15.37
2022-10-28T05:17:54.267Z,15.53
2022-10-28T05:27:59.617Z,15.48
2022-10-28T05:38:04.255Z,14.88
2022-10-28T05:48:08.078Z,15.46
2022-10-28T05:58:12.625Z,15.49
2022-10-28T06:08:15.735Z,14.63
2022-10-28T06:18:20.305Z,14.35
2022-10-28T06:28:23.568Z,13.72
2022-10-28T06:38:28.605Z,13.40
2022-10-28T06:48:33.294Z,14.47
2022-10-28T06:58:37.769Z,14.36
2022-10-28T07:08:40.828Z,14.71
2022-10-28T07:18:45.286Z,15.05
2022-10-28T07:28:48.365Z,15.24
2022-10-28T07:38:53.702Z,15.69
2022-10-28T07:48:56.843Z,15.70
2022-10-28T07:59:01.550Z,15.85
2022-10-28T08:09:05.092Z,15.59
2022-10-28T08:19:09.610Z,15.71
2022-10-28T08:29:12.945Z,15.80
2022-10-28T08:39:17.474Z,15.71
2022-10-28T08:49:23.651Z,15.98
2022-10-28T08:59:31.872Z,16.06
2022-10-28T09:09:35.041Z,16.10
2022-10-28T09:19:44.782Z,16.12
2022-10-28T09:29:54.535Z,16.24
2022-10-28T09:40:02.717Z,16.07
2022-10-28T09:50:12.900Z,16.06
2022-10-28T10:00:18.451Z,16.15
2022-10-28T10:10:24.891Z,16.14
2022-10-28T10:20:29.405Z,16.01
2022-10-28T10:30:34.856Z,16.04
2022-10-28T10:40:42.377Z,16.34
2022-10-28T10:50:46.623Z,16.49
2022-10-28T11:00:55.000Z,16.39
2022-10-28T11:11:07.376Z,16.30
2022-10-28T11:21:48.675Z,16.29
2022-10-28T11:32:27.301Z,16.51
2022-10-28T11:42:41.506Z,15.87
2022-10-28T11:53:29.964Z,16.58
2022-10-28T12:04:01.222Z,16.51
2022-10-28T12:14:11.206Z,16.35
2022-10-28T12:24:18.027Z,16.56
2022-10-28T12:34:24.854Z,16.32
2022-10-28T12:44:30.014Z,16.37
2022-10-28T12:54:42.019Z,16.67
2022-10-28T13:04:46.599Z,16.65
2022-10-28T13:15:01.678Z,16.62
2022-10-28T13:25:18.671Z,16.64
2022-10-28T13:35:23.973Z,16.63
2022-10-28T13:45:52.150Z,16.38
2022-10-28T13:55:58.223Z,16.89
2022-10-28T14:06:02.991Z,16.59
2022-10-28T14:16:23.249Z,16.61
2022-10-28T14:26:27.854Z,16.64
2022-10-28T14:36:35.331Z,16.70
2022-10-28T14:47:00.842Z,16.74
2022-10-28T14:57:04.433Z,16.64
2022-10-28T15:07:11.540Z,16.54
2022-10-28T15:17:17.199Z,16.70
2022-10-28T15:27:22.225Z,16.56
2022-10-28T15:37:27.656Z,16.39
2022-10-28T15:47:33.935Z,16.39
2022-10-28T15:57:48.304Z,16.30
2022-10-28T16:07:53.190Z,16.37
2022-10-28T16:17:56.968Z,16.33
2022-10-28T16:28:01.737Z,16.37
2022-10-28T16:38:05.011Z,16.42
2022-10-28T16:48:12.772Z,16.43
2022-10-28T16:58:16.123Z,16.22
2022-10-28T17:08:42.099Z,16.15
2022-10-28T17:18:44.263Z,16.31
2022-10-28T17:28:53.245Z,16.22
2022-10-28T17:38:57.235Z,16.26
2022-10-28T17:49:08.314Z,16.25
2022-10-28T17:59:11.431Z,16.37
2022-10-28T18:09:15.942Z,16.23
2022-10-28T18:19:19.188Z,16.20
2022-10-28T18:29:23.975Z,16.21
2022-10-28T18:39:27.355Z,16.28
2022-10-28T18:49:31.767Z,16.08
2022-10-28T18:59:43.213Z,16.08
2022-10-28T19:09:57.240Z,16.13
2022-10-28T19:20:00.463Z,16.08
2022-10-28T19:30:07.932Z,16.02
2022-10-28T19:40:13.848Z,16.10
2022-10-28T19:50:18.457Z,16.23
2022-10-28T20:00:21.802Z,16.27
2022-10-28T20:10:26.306Z,16.22
2022-10-28T20:20:29.430Z,16.18
2022-10-28T20:30:33.808Z,16.17
2022-10-28T20:40:36.937Z,16.23
2022-10-28T20:50:50.358Z,16.19
2022-10-28T21:00:54.232Z,16.28
2022-10-28T21:11:02.387Z,16.14
2022-10-28T21:21:06.341Z,16.21
2022-10-28T21:31:11.899Z,16.18
2022-10-28T21:41:16.470Z,16.15
2022-10-28T21:51:20.956Z,16.07
2022-10-28T22:01:25.241Z,16.19
2022-10-28T22:11:30.048Z,16.16
2022-10-28T22:21:34.868Z,16.02
2022-10-28T22:31:39.413Z,15.99
2022-10-28T22:41:42.494Z,15.99
2022-10-28T22:51:46.937Z,16.06
2022-10-28T23:01:50.193Z,16.05
2022-10-28T23:11:54.724Z,15.98
2022-10-28T23:22:01.804Z,15.90
2022-10-28T23:32:06.899Z,15.98
2022-10-28T23:42:10.003Z,15.88
2022-10-28T23:52:14.461Z,15.94
